Prescott Valley, AZ

4:11 PM MST on October 25, 2014 (GMT -0700)
Flagstaff Pulliam | Change Station
CLOSE
Current Station
Airport
Location: Flagstaff,
Elevation: 7011 ft
Nearby Weather Stations

Elev 7011 ft 35.14 °N, 111.67 °W | Updated 14 minutes ago

Clear
Clear
67 °F
Feels Like 67 °F
N
15
Wind Variable Wind from SSW
Gusts 23 mph

Today
High -- | Low -- °F
--% Chance of Precip.
Yesterday
High -- | Low -- °F
Precip. -- in
6:43 AM 5:42 PM
Waxing Crescent, 5% visible
Pressure 30.09 in
Visibility 10.0 miles
Clouds Clear
Dew Point 40 °F
Humidity 37%
Rainfall 0.00 in
Snow Depth Not available.
UV 1 out of 12
Pollen 5.20 out of 12
Air Quality Not available.
Flu Activity No Activity
METAR KFLG 252257Z 21013G20KT 10SM CLR 19/04 A3029 RMK AO2 SLP189 T01940044

More Conditions Fewer Conditions

Pressure 30.09 in
Visibility 10.0 miles
Clouds Clear
Dew Point 40 °F
Humidity 37%
Rainfall 0.00 in
Snow Depth Not available.
UV 1 out of 12
Pollen 5.20 out of 12
Air Quality Not available.
Flu Activity No Activity
METAR KFLG 252257Z 21013G20KT 10SM CLR 19/04 A3029 RMK AO2 SLP189 T01940044

More Conditions Fewer Conditions

10-Day Weather Forecast

Almanac

Astronomy

Oct. 25, 2014 Rise Set
Actual Time 6:43 AM MST 5:42 PM MST
Civil Twilight 6:17 AM MST 6:08 PM MST
Nautical Twilight 5:48 AM MST 6:37 PM MST
Astronomical Twilight 5:18 AM MST 7:07 PM MST
Moon 8:22 AM MST 7:12 PM MST
Length of Visible Light 11h 50m
Length of Day
10h 59m
Tomorrow will be 1m 59s shorter.
Waxing Crescent, 5% of the Moon is Illuminated
Today
Waxing Crescent
Oct 30
First Quarter
Nov 6
Full
Nov 14
Last Quarter
Nov 22
New

Today's Extremes

State Highs State Lows

Community

WunderPhotos

Upload Photos

1,765,024 photos uploaded!

Nearby

Snow Depth

Station Depth Elevation
White Horse Lake 0 in 7180 ft
Snowslide Canyon 0 in 9730 ft
Maverick Fork 0 in 9200 ft
Hannagan Meadows 0 in 9020 ft
Beaver Head 0 in 7990 ft

Earthquake Activity

City Distance Mag. Time & Date
No recent earthquake activity has been reported nearby.
Minimum magnitude displayed is 2.5.

Coastal Water Temperatures

Place Temperature
No Stations Reporting

Nearby Weather Stations